Latest Weather Observations for Cerberus

IDV60901

Issued at 7:31 am EDT Tuesday 28 March 2017 (issued every 10 minutes, with the page automatically refreshed every 10 minutes)

About weather observations | Map of Melbourne area stations | Latest observations for Melbourne area | Other Formats
Station Details ID: 086361 Name: CERBERUS Lat: -38.36 Lon: 145.18 Height: 12.69 m
Data from the previous 72 hours. | See also: Recent months at Cerberus
Date/Time
EDT
Temp
°C
App
Temp
°C
Dew
Point
°C
Rel
Hum
%
Delta-T
°C
Wind Press
QNH
hPa
Press
MSL
hPa
Rain since
9am
mm
Dir  Spd
km/h
Gust
km/h
Spd
kts
Gust
kts
28/07:00am 14.0 12.9 10.8 81 1.7 WNW 7 11 4 6 1013.7 1013.6 2.8
28/06:30am 14.2 12.8 11.0 81 1.7 WNW 9 13 5 7 1013.4 1013.4 2.8
28/06:00am 13.7 12.3 10.9 83 1.5 WNW 9 15 5 8 1013.2 1013.2 2.8
28/05:30am 14.0 13.1 11.2 83 1.5 NW 7 11 4 6 1013.0 1013.0 2.8
28/05:00am 13.2 11.9 10.0 81 1.6 NW 7 13 4 7 1012.9 1012.9 2.8
28/04:30am 12.3 10.6 9.7 84 1.3 NW 9 15 5 8 1012.7 1012.7 2.8
28/04:00am 12.6 11.4 9.6 82 1.5 NNW 6 6 3 3 1012.8 1012.8 2.8
28/03:30am 13.9 12.2 9.7 76 2.2 NW 9 13 5 7 1012.9 1012.9 2.8
28/03:00am 14.2 12.3 10.6 79 1.9 WNW 11 17 6 9 1013.0 1013.0 2.8
28/02:30am 12.7 11.2 9.3 80 1.7 NW 7 9 4 5 1012.9 1012.9 2.8
28/02:00am 12.3 11.0 9.9 85 1.2 NNW 7 9 4 5 1013.0 1013.0 2.8
28/01:30am 11.7 10.4 9.1 84 1.3 NNW 6 7 3 4 1012.9 1012.9 2.8
28/01:00am 13.0 11.8 9.6 80 1.7 WNW 6 9 3 5 1013.0 1013.0 2.8
28/12:30am 13.2 12.0 10.2 82 1.6 NW 7 11 4 6 1013.1 1013.1 2.8
28/12:00am 11.5 10.4 9.8 89 0.9 WNW 6 9 3 5 1013.1 1013.1 2.8
 
Date/Time
EDT
Temp
°C
App
Temp
°C
Dew
Point
°C
Rel
Hum
%
Delta-T
°C
Wind Press
QNH
hPa
Press
MSL
hPa
Rain since
9am
mm
Dir  Spd
km/h
Gust
km/h
Spd
kts
Gust
kts
27/11:30pm 12.0 11.4 10.4 90 0.8 WNW 4 6 2 3 1013.2 1013.2 2.8
27/11:00pm 11.5 10.4 9.9 90 0.8 NW 6 7 3 4 1013.2 1013.2 2.8
27/10:30pm 11.0 10.4 9.1 88 0.9 NW 2 6 1 3 1013.1 1013.1 2.8
27/10:00pm 12.2 11.6 10.3 88 1.0 NW 4 6 2 3 1012.8 1012.8 2.8
27/09:30pm 12.4 11.3 10.5 88 1.0 NNW 7 9 4 5 1012.7 1012.7 2.8
27/09:00pm 13.1 13.0 10.8 86 1.2 NW 2 4 1 2 1012.3 1012.3 2.8
27/08:30pm 14.0 13.2 11.2 83 1.5 NW 6 6 3 3 1012.0 1012.0 2.8
27/08:00pm 14.4 14.0 11.0 80 1.8 NW 4 6 2 3 1011.6 1011.6 2.8
27/07:30pm 15.8 15.0 11.0 73 2.6 NW 6 7 3 4 1011.2 1011.2 2.8
27/07:00pm 17.5 16.6 11.3 67 3.4 NW 7 13 4 7 1011.2 1011.2 2.8
27/06:30pm 18.1 16.5 11.4 65 3.7 WNW 11 19 6 10 1011.3 1011.3 2.8
27/06:00pm 18.1 15.3 11.4 65 3.7 WNW 17 26 9 14 1011.2 1011.2 2.8
27/05:30pm 17.7 15.1 11.9 69 3.2 WNW 17 26 9 14 1010.7 1010.7 2.8
27/05:00pm 15.4 14.7 12.0 80 1.8 WNW 7 15 4 8 1010.8 1010.8 2.8
27/04:30pm 14.2 11.0 11.4 83 1.5 W 19 28 10 15 1010.5 1010.5 2.8
27/04:00pm 14.6 7.4 10.6 77 2.1 W 39 61 21 33 1010.7 1010.7 1.6
27/03:50pm 16.0 11.4 12.4 79 2.0 W 28 54 15 29 1009.4 1009.4 1.4
27/03:30pm 16.0 12.8 13.1 83 1.6 W 22 33 12 18 1008.8 1008.8 1.0
27/03:00pm 17.8 12.4 12.9 73 2.7 W 33 63 18 34 1008.6 1008.6 0.0
27/02:42pm 20.2 15.6 12.2 60 4.5 WSW 28 46 15 25 1007.9 1007.9 0.0
27/02:30pm 20.6 17.1 13.3 63 4.2 WSW 24 41 13 22 1007.9 1007.9 0.0
27/02:00pm 19.7 16.0 14.9 74 2.8 SW 28 41 15 22 1007.4 1007.4 0.0
27/01:30pm 20.2 14.7 15.8 76 2.6 SW 39 59 21 32 1007.2 1007.2 0.0
27/01:10pm 22.2 17.7 14.8 63 4.4 W 32 57 17 31 1005.9 1005.9 0.0
27/01:08pm 23.8 19.6 13.6 52 5.9 WNW 28 50 15 27 1006.0 1006.0 0.0
27/01:06pm 30.0 26.1 14.5 38 9.4 NW 28 48 15 26 1005.7 1005.7 0.0
27/01:00pm 31.4 27.0 14.1 35 10.5 NW 30 48 16 26 1004.3 1004.3 0.0
27/12:32pm 32.7 28.6 13.8 31 11.5 NW 28 46 15 25 1003.2 1003.2 0.0
27/12:30pm 33.0 29.4 14.1 32 11.5 NW 26 46 14 25 1003.1 1003.1 0.0
27/12:04pm 32.1 27.8 13.3 31 11.3 NNW 28 50 15 27 1002.1 1002.1 0.0
27/12:00pm 32.1 29.0 13.3 31 11.3 N 22 50 12 27 1001.9 1001.9 0.0
27/11:30am 31.3 27.3 13.1 33 10.9 N 26 57 14 31 1002.2 1002.2 0.0
27/11:00am 30.6 25.8 13.0 34 10.5 N 30 56 16 30 1002.2 1002.2 0.0
27/10:30am 29.9 25.7 13.6 36 9.8 N 28 48 15 26 1002.9 1002.9 0.0
27/10:29am 29.9 25.7 13.6 36 9.8 N 28 48 15 26 1002.9 1002.9 0.0
27/10:00am 28.9 27.2 14.7 42 8.6 N 17 30 9 16 1003.1 1003.1 0.0
27/09:30am 27.5 25.5 13.8 43 8.1 N 17 32 9 17 1003.3 1003.3 0.0
27/09:00am 26.6 24.9 14.7 48 7.2 N 17 28 9 15 1003.9 1003.9 0.0
27/08:30am 24.8 24.1 15.4 56 5.7 N 13 20 7 11 1004.0 1004.0 0.0
27/08:00am 21.9 22.4 16.6 72 3.2 N 9 15 5 8 1004.3 1004.3 0.0
27/07:30am 20.0 21.0 16.8 82 1.9 NNE 7 11 4 6 1004.6 1004.6 0.0
27/07:00am 20.2 21.7 16.6 80 2.2 NNE 4 7 2 4 1004.8 1004.8 0.0
27/06:30am 19.4 20.3 16.6 84 1.7 N 7 13 4 7 1005.1 1005.1 0.0
27/06:00am 18.7 19.6 16.1 85 1.6 NE 6 9 3 5 1005.3 1005.3 0.0
27/05:30am 18.5 19.1 15.9 85 1.5 NE 7 11 4 6 1005.7 1005.7 0.0
27/05:00am 18.2 19.1 16.0 87 1.3 N 6 9 3 5 1006.1 1006.1 0.0
27/04:30am 18.4 19.1 16.2 87 1.3 N 7 11 4 6 1006.3 1006.3 0.0
27/04:00am 17.8 18.4 15.8 88 1.2 NNE 7 13 4 7 1006.4 1006.4 0.0
27/03:30am 17.8 18.4 15.8 88 1.2 N 7 13 4 7 1007.1 1007.1 0.0
27/03:00am 18.9 19.8 16.7 87 1.3 N 7 11 4 6 1007.4 1007.4 0.0
27/02:30am 18.9 19.5 16.7 87 1.3 NNE 9 17 5 9 1007.9 1007.9 0.0
27/02:00am 18.9 20.0 16.5 86 1.4 NNE 6 13 3 7 1008.4 1008.4 0.0
27/01:30am 19.1 20.2 16.5 85 1.6 NNE 6 9 3 5 1008.9 1008.9 0.0
27/01:00am 18.9 20.0 16.7 87 1.3 NNE 6 11 3 6 1009.6 1009.6 0.0
27/12:30am 18.8 20.0 16.8 88 1.2 NNE 6 9 3 5 1010.2 1010.2 0.0
27/12:00am 18.9 20.2 17.2 90 1.0 NE 6 11 3 6 1010.4 1010.4 0.0
 
Date/Time
EDT
Temp
°C
App
Temp
°C
Dew
Point
°C
Rel
Hum
%
Delta-T
°C
Wind Press
QNH
hPa
Press
MSL
hPa
Rain since
9am
mm
Dir  Spd
km/h
Gust
km/h
Spd
kts
Gust
kts
26/11:30pm 15.1 16.1 13.3 89 1.0 CALM 0 2 0 1 1011.0 1011.0 0.0
26/11:00pm 15.4 16.5 13.4 88 1.1 CALM 0 0 0 0 1011.2 1011.2 0.0
26/10:30pm 16.0 17.3 14.0 88 1.1 CALM 0 0 0 0 1011.6 1011.6 0.0
26/10:00pm 16.8 18.3 14.6 87 1.3 CALM 0 0 0 0 1011.7 1011.7 0.0
26/09:30pm 17.1 17.9 14.7 86 1.4 SSE 4 4 2 2 1012.4 1012.4 0.0
26/09:00pm 17.4 18.2 14.9 85 1.4 SSE 4 6 2 3 1012.4 1012.4 0.0
26/08:30pm 17.7 18.5 14.8 83 1.7 SSE 4 6 2 3 1012.4 1012.4 0.0
26/08:00pm 18.3 19.5 15.0 81 1.9 SSE 2 4 1 2 1012.3 1012.3 0.0
26/07:30pm 19.0 19.6 15.3 79 2.2 SSE 6 11 3 6 1012.1 1012.1 0.0
26/07:00pm 20.1 20.6 15.5 75 2.7 SSE 7 13 4 7 1012.2 1012.2 0.0
26/06:30pm 21.0 21.2 15.8 72 3.1 S 9 15 5 8 1012.2 1012.2 0.0
26/06:00pm 21.6 21.5 15.9 70 3.4 SE 11 15 6 8 1012.2 1012.2 0.0
26/05:30pm 22.2 22.2 16.2 69 3.6 SSE 11 15 6 8 1012.0 1012.0 0.0
26/05:00pm 22.1 22.4 16.1 69 3.6 S 9 19 5 10 1012.1 1012.1 0.0
26/04:30pm 22.9 23.2 17.1 70 3.6 S 11 17 6 9 1012.3 1012.3 0.0
26/04:00pm 21.8 22.3 16.5 72 3.2 S 9 13 5 7 1012.5 1012.5 0.0
26/03:30pm 22.4 23.3 16.7 70 3.5 S 7 19 4 10 1012.7 1012.7 0.0
26/03:00pm 22.4 23.3 16.7 70 3.5 SSE 7 15 4 8 1012.9 1012.9 0.0
26/02:30pm 21.5 22.6 16.5 73 3.0 S 6 9 3 5 1013.4 1013.4 0.0
26/02:00pm 21.5 22.2 16.0 71 3.3 SE 7 9 4 5 1013.7 1013.6 0.0
26/01:30pm 21.1 21.9 15.9 72 3.1 SSE 6 9 3 5 1014.2 1014.1 0.0
26/01:00pm 21.0 21.9 16.6 76 2.7 SE 7 15 4 8 1014.6 1014.5 0.0
26/12:30pm 20.6 21.7 16.6 78 2.4 SSE 6 9 3 5 1015.2 1015.1 0.0
26/12:00pm 20.6 21.7 16.6 78 2.4 SE 6 7 3 4 1015.6 1015.5 0.0
26/11:30am 20.6 21.6 16.4 77 2.5 SSE 6 13 3 7 1015.7 1015.6 0.0
26/11:00am 20.2 21.1 16.6 80 2.2 SSE 7 9 4 5 1016.0 1015.9 0.0
26/10:30am 19.9 21.0 16.7 82 1.9 S 6 7 3 4 1016.1 1016.0 0.0
26/10:00am 19.5 20.4 16.5 83 1.8 SSW 7 11 4 6 1015.9 1015.8 0.0
26/09:30am 19.1 20.2 16.5 85 1.6 S 6 9 3 5 1015.6 1015.5 0.0
26/09:00am 18.7 20.3 16.9 89 1.1 SW 4 7 2 4 1015.2 1015.1 0.0
26/08:30am 18.4 20.3 16.7 90 1.0 SW 2 4 1 2 1015.3 1015.2 0.0
26/08:00am 17.8 19.8 16.1 90 1.0 CALM 0 0 0 0 1014.9 1014.8 0.0
26/07:30am 17.6 19.2 15.9 90 1.0 SW 2 4 1 2 1014.8 1014.7 0.0
26/07:00am 17.5 19.4 15.8 90 1.0 CALM 0 0 0 0 1014.5 1014.4 0.0
26/06:30am 17.4 19.4 15.9 91 0.9 CALM 0 0 0 0 1014.3 1014.2 0.0
26/06:00am 17.2 19.1 15.7 91 0.9 CALM 0 0 0 0 1014.0 1013.9 0.0
26/05:30am 17.0 18.8 15.5 91 0.9 CALM 0 0 0 0 1014.0 1013.9 0.0
26/05:00am 16.8 18.5 15.3 91 0.9 CALM 0 0 0 0 1013.9 1013.8 0.0
26/04:30am 16.9 18.6 15.2 90 1.0 CALM 0 0 0 0 1013.7 1013.6 0.0
26/04:00am 17.4 19.3 15.7 90 1.0 CALM 0 0 0 0 1013.7 1013.6 0.0
26/03:30am 17.4 18.5 15.6 89 1.1 SW 4 6 2 3 1013.7 1013.6 0.0
26/03:00am 17.6 18.3 15.6 88 1.2 SW 6 7 3 4 1014.1 1014.0 0.0
26/02:30am 18.4 19.3 16.6 89 1.1 WSW 7 13 4 7 1014.2 1014.1 0.0
26/02:00am 18.5 19.4 16.7 89 1.1 WSW 7 13 4 7 1014.3 1014.2 0.0
26/01:30am 18.2 19.2 16.4 89 1.1 WSW 6 9 3 5 1014.4 1014.3 0.0
26/01:00am 18.3 19.0 16.1 87 1.3 WSW 7 11 4 6 1014.2 1014.1 0.0
26/12:30am 18.9 19.8 16.5 86 1.4 SW 7 11 4 6 1014.3 1014.2 0.0
26/12:00am 19.1 20.0 16.7 86 1.4 WSW 7 9 4 5 1014.2 1014.1 0.0
 
Date/Time
EDT
Temp
°C
App
Temp
°C
Dew
Point
°C
Rel
Hum
%
Delta-T
°C
Wind Press
QNH
hPa
Press
MSL
hPa
Rain since
9am
mm
Dir  Spd
km/h
Gust
km/h
Spd
kts
Gust
kts
25/11:30pm 19.1 20.0 16.7 86 1.4 SW 7 9 4 5 1014.2 1014.1 0.0
25/11:00pm 19.1 20.2 16.7 86 1.4 SW 6 9 3 5 1014.0 1013.9 0.0
25/10:30pm 19.4 20.4 16.8 85 1.6 SW 7 11 4 6 1014.0 1013.9 0.0
25/10:00pm 19.3 19.5 16.7 85 1.6 SW 11 17 6 9 1013.6 1013.5 0.0
25/09:30pm 19.7 19.0 16.5 82 1.9 SSW 15 20 8 11 1013.3 1013.3 0.0
25/09:00pm 20.4 20.3 16.0 76 2.6 SW 11 17 6 9 1013.0 1013.0 0.0
25/08:30pm 20.4 21.1 15.6 74 2.9 SSW 6 9 3 5 1012.2 1012.2 0.0
25/08:00pm 21.1 22.2 16.7 76 2.7 SSW 6 7 3 4 1011.9 1011.9 0.0
25/07:30pm 21.6 22.8 15.9 70 3.4 SSW 4 6 2 3 1011.6 1011.6 0.0
25/07:00pm 22.5 23.2 15.6 65 4.1 S 6 9 3 5 1011.3 1011.3 0.0
25/06:30pm 23.3 23.4 15.6 62 4.6 SW 9 15 5 8 1010.9 1010.9 0.0
25/06:00pm 25.3 25.0 14.4 50 6.5 SSW 9 15 5 8 1010.6 1010.6 0.0
25/05:30pm 25.9 25.6 14.4 49 6.9 S 9 17 5 9 1010.4 1010.4 0.0
25/05:00pm 27.0 26.3 14.4 46 7.6 SSW 11 15 6 8 1010.3 1010.3 0.0
25/04:30pm 27.2 26.4 15.2 47 7.3 S 13 15 7 8 1010.2 1010.2 0.0
25/04:00pm 26.9 26.1 15.0 48 7.2 S 13 17 7 9 1010.2 1010.2 0.0
25/03:30pm 26.7 25.5 15.1 49 7.0 SSW 15 19 8 10 1010.5 1010.5 0.0
25/03:00pm 27.9 28.0 15.5 46 7.6 S 9 15 5 8 1010.6 1010.6 0.0
25/02:30pm 28.4 27.9 15.0 44 8.1 W 11 19 6 10 1010.8 1010.8 0.0
25/02:00pm 28.0 27.2 13.9 42 8.4 NW 11 17 6 9 1011.0 1011.0 0.0
25/01:30pm 26.7 26.2 16.0 52 6.6 NW 13 22 7 12 1011.3 1011.3 0.0
25/01:00pm 26.8 25.8 15.5 50 6.9 NNW 15 22 8 12 1011.6 1011.6 0.0
25/12:30pm 26.7 25.4 15.7 51 6.7 NW 17 26 9 14 1011.9 1011.9 0.0
25/12:00pm 24.8 23.8 15.7 57 5.5 NNW 15 26 8 14 1012.3 1012.3 0.0
25/11:30am 24.6 22.7 15.8 58 5.3 NNW 20 35 11 19 1012.4 1012.4 0.0
25/11:00am 23.5 21.5 15.5 60 4.8 NNW 20 33 11 18 1012.6 1012.6 0.0
25/10:30am 23.2 22.5 15.5 62 4.6 N 13 24 7 13 1012.6 1012.6 0.0
25/10:00am 23.5 22.6 15.8 62 4.7 NNW 15 32 8 17 1012.5 1012.5 0.0
25/09:30am 22.6 23.5 16.6 69 3.7 N 7 20 4 11 1012.5 1012.5 0.0
25/09:00am 19.8 20.4 15.2 75 2.7 N 6 11 3 6 1012.5 1012.5 0.0
25/08:30am 18.4 18.9 14.9 80 2.0 N 6 9 3 5 1012.4 1012.4 0.0
25/08:00am 17.4 18.2 14.7 84 1.6 N 4 6 2 3 1012.1 1012.1 0.0

Latest Capital City Observations: Canberra | Sydney | Melbourne | Brisbane | Adelaide | Perth | Hobart | Darwin

Other Formats:

Comma delimited format used in spreadsheet applications
http://www.bom.gov.au/fwo/IDV60901/IDV60901.94898.axf

JavaScript Object Notation format (JSON) in row-major order
http://www.bom.gov.au/fwo/IDV60901/IDV60901.94898.json